sensor_id;sensor_type;location;lat;lon;timestamp;pressure;altitude;pressure_sealevel;temperature;humidity
79198;BME280;68628;48.714;9.472;2023-03-21T00:01:56;98299.31;;;7.80;78.23
79198;BME280;68628;48.714;9.472;2023-03-21T00:04:23;98292.72;;;8.03;76.97
79198;BME280;68628;48.714;9.472;2023-03-21T00:06:51;98294.59;;;8.18;76.73
79198;BME280;68628;48.714;9.472;2023-03-21T00:09:18;98295.13;;;8.22;76.72
79198;BME280;68628;48.714;9.472;2023-03-21T00:11:44;98295.75;;;8.16;76.99
79198;BME280;68628;48.714;9.472;2023-03-21T00:14:09;98296.19;;;8.03;77.36
79198;BME280;68628;48.714;9.472;2023-03-21T00:16:38;98290.47;;;8.08;77.16
79198;BME280;68628;48.714;9.472;2023-03-21T00:19:05;98287.50;;;8.11;77.34
79198;BME280;68628;48.714;9.472;2023-03-21T00:21:34;98289.88;;;8.22;76.41
79198;BME280;68628;48.714;9.472;2023-03-21T00:24:04;98287.56;;;8.19;77.13
79198;BME280;68628;48.714;9.472;2023-03-21T00:26:31;98296.03;;;8.05;77.02
79198;BME280;68628;48.714;9.472;2023-03-21T00:28:57;98284.34;;;7.99;77.49
79198;BME280;68628;48.714;9.472;2023-03-21T00:31:23;98285.19;;;7.99;77.78
79198;BME280;68628;48.714;9.472;2023-03-21T00:33:49;98287.50;;;8.11;76.97
79198;BME280;68628;48.714;9.472;2023-03-21T00:36:15;98281.94;;;8.06;76.70
79198;BME280;68628;48.714;9.472;2023-03-21T00:38:42;98284.34;;;7.99;76.86
79198;BME280;68628;48.714;9.472;2023-03-21T00:41:10;98280.25;;;7.96;76.95
79198;BME280;68628;48.714;9.472;2023-03-21T00:43:39;98269.75;;;7.96;77.22
79198;BME280;68628;48.714;9.472;2023-03-21T00:46:05;98271.09;;;8.00;77.20
79198;BME280;68628;48.714;9.472;2023-03-21T00:48:31;98261.22;;;7.94;77.65
79198;BME280;68628;48.714;9.472;2023-03-21T00:50:57;98263.41;;;8.07;76.60
79198;BME280;68628;48.714;9.472;2023-03-21T00:53:25;98265.84;;;8.00;76.65
79198;BME280;68628;48.714;9.472;2023-03-21T00:55:52;98262.59;;;7.80;77.82
79198;BME280;68628;48.714;9.472;2023-03-21T00:58:18;98258.91;;;7.91;76.75
79198;BME280;68628;48.714;9.472;2023-03-21T01:00:44;98260.72;;;7.99;76.00
79198;BME280;68628;48.714;9.472;2023-03-21T01:03:14;98258.00;;;7.74;77.87
79198;BME280;68628;48.714;9.472;2023-03-21T01:05:46;98258.56;;;7.86;77.76
79198;BME280;68628;48.714;9.472;2023-03-21T01:08:30;98255.97;;;7.94;77.86
79198;BME280;68628;48.714;9.472;2023-03-21T01:11:04;98256.13;;;7.93;77.54
79198;BME280;68628;48.714;9.472;2023-03-21T01:13:33;98255.19;;;8.02;76.54
79198;BME280;68628;48.714;9.472;2023-03-21T01:15:59;98254.31;;;7.93;76.94
79198;BME280;68628;48.714;9.472;2023-03-21T01:18:28;98246.44;;;7.93;76.97
79198;BME280;68628;48.714;9.472;2023-03-21T01:20:57;98251.34;;;7.88;77.23
79198;BME280;68628;48.714;9.472;2023-03-21T01:23:27;98254.13;;;7.87;77.18
79198;BME280;68628;48.714;9.472;2023-03-21T01:25:55;98250.38;;;7.97;76.83
79198;BME280;68628;48.714;9.472;2023-03-21T01:28:24;98250.88;;;7.93;77.15
79198;BME280;68628;48.714;9.472;2023-03-21T01:30:53;98251.03;;;7.91;77.84
79198;BME280;68628;48.714;9.472;2023-03-21T01:33:20;98248.72;;;7.88;77.83
79198;BME280;68628;48.714;9.472;2023-03-21T01:35:46;98250.28;;;7.73;77.78
79198;BME280;68628;48.714;9.472;2023-03-21T01:38:12;98247.03;;;7.79;78.08
79198;BME280;68628;48.714;9.472;2023-03-21T01:40:39;98249.19;;;7.83;77.66
79198;BME280;68628;48.714;9.472;2023-03-21T01:48:41;98247.03;;;7.79;77.80
79198;BME280;68628;48.714;9.472;2023-03-21T01:51:10;98241.94;;;7.77;77.93
79198;BME280;68628;48.714;9.472;2023-03-21T01:53:38;98233.91;;;7.79;77.73
79198;BME280;68628;48.714;9.472;2023-03-21T01:56:12;98229.16;;;7.74;77.78
79198;BME280;68628;48.714;9.472;2023-03-21T01:58:46;98235.09;;;7.84;77.91
79198;BME280;68628;48.714;9.472;2023-03-21T02:01:13;98240.13;;;7.78;77.80
79198;BME280;68628;48.714;9.472;2023-03-21T02:03:43;98229.75;;;7.68;76.99
79198;BME280;68628;48.714;9.472;2023-03-21T02:06:57;98230.66;;;7.85;76.96
79198;BME280;68628;48.714;9.472;2023-03-21T02:09:33;98232.78;;;7.81;77.46
79198;BME280;68628;48.714;9.472;2023-03-21T02:12:00;98231.28;;;7.79;77.77
79198;BME280;68628;48.714;9.472;2023-03-21T02:14:30;98222.44;;;7.80;77.40
79198;BME280;68628;48.714;9.472;2023-03-21T02:28:44;98218.66;;;7.74;77.96
79198;BME280;68628;48.714;9.472;2023-03-21T02:31:40;98211.56;;;7.66;78.11
79198;BME280;68628;48.714;9.472;2023-03-21T02:40:29;98212.56;;;7.74;78.19
79198;BME280;68628;48.714;9.472;2023-03-21T02:43:16;98213.13;;;7.86;77.73
79198;BME280;68628;48.714;9.472;2023-03-21T02:45:55;98206.50;;;7.73;78.00
79198;BME280;68628;48.714;9.472;2023-03-21T02:48:35;98203.41;;;7.78;78.01
79198;BME280;68628;48.714;9.472;2023-03-21T02:51:09;98206.50;;;7.73;78.53
79198;BME280;68628;48.714;9.472;2023-03-21T02:53:45;98207.63;;;7.62;77.97
79198;BME280;68628;48.714;9.472;2023-03-21T02:56:18;98205.19;;;7.69;77.29
79198;BME280;68628;48.714;9.472;2023-03-21T02:58:45;98197.03;;;7.80;78.05
79198;BME280;68628;48.714;9.472;2023-03-21T03:01:12;98195.03;;;7.66;78.73
79198;BME280;68628;48.714;9.472;2023-03-21T03:03:38;98199.50;;;7.82;77.89
79198;BME280;68628;48.714;9.472;2023-03-21T03:06:14;98191.22;;;7.68;78.71
79198;BME280;68628;48.714;9.472;2023-03-21T03:12:03;98202.81;;;7.58;78.96
79198;BME280;68628;48.714;9.472;2023-03-21T03:14:49;98203.94;;;7.55;79.53
79198;BME280;68628;48.714;9.472;2023-03-21T03:17:36;98210.31;;;7.53;79.45
79198;BME280;68628;48.714;9.472;2023-03-21T03:20:23;98202.16;;;7.56;79.49
79198;BME280;68628;48.714;9.472;2023-03-21T03:23:20;98206.13;;;7.60;79.44
79198;BME280;68628;48.714;9.472;2023-03-21T03:25:58;98207.97;;;7.67;78.89
79198;BME280;68628;48.714;9.472;2023-03-21T03:28:36;98202.06;;;7.74;78.21
79198;BME280;68628;48.714;9.472;2023-03-21T03:31:10;98205.19;;;7.69;79.24
79198;BME280;68628;48.714;9.472;2023-03-21T03:33:44;98205.69;;;7.73;78.58
79198;BME280;68628;48.714;9.472;2023-03-21T03:36:18;98201.78;;;7.77;78.93
79198;BME280;68628;48.714;9.472;2023-03-21T03:38:49;98197.66;;;7.74;78.19
79198;BME280;68628;48.714;9.472;2023-03-21T03:41:23;98194.88;;;7.76;78.36
79198;BME280;68628;48.714;9.472;2023-03-21T03:43:55;98194.38;;;7.72;79.11
79198;BME280;68628;48.714;9.472;2023-03-21T03:46:35;98194.19;;;7.65;78.73
79198;BME280;68628;48.714;9.472;2023-03-21T03:49:19;98196.03;;;7.73;78.34
79198;BME280;68628;48.714;9.472;2023-03-21T03:51:54;98186.03;;;7.77;78.21
79198;BME280;68628;48.714;9.472;2023-03-21T03:54:35;98192.69;;;7.63;79.10
79198;BME280;68628;48.714;9.472;2023-03-21T03:57:05;98191.91;;;7.71;78.62
79198;BME280;68628;48.714;9.472;2023-03-21T03:59:38;98188.41;;;7.62;78.65
79198;BME280;68628;48.714;9.472;2023-03-21T04:02:06;98188.22;;;7.55;79.35
79198;BME280;68628;48.714;9.472;2023-03-21T04:04:32;98184.97;;;7.61;79.47
79198;BME280;68628;48.714;9.472;2023-03-21T04:06:58;98185.34;;;7.66;78.97
79198;BME280;68628;48.714;9.472;2023-03-21T04:09:25;98181.69;;;7.59;78.95
79198;BME280;68628;48.714;9.472;2023-03-21T04:11:55;98177.28;;;7.60;79.62
79198;BME280;68628;48.714;9.472;2023-03-21T04:14:22;98173.31;;;7.56;79.01
79198;BME280;68628;48.714;9.472;2023-03-21T04:16:50;98174.50;;;7.61;79.08
79198;BME280;68628;48.714;9.472;2023-03-21T04:19:17;98171.19;;;7.59;78.74
79198;BME280;68628;48.714;9.472;2023-03-21T04:21:43;98170.22;;;7.60;79.23
79198;BME280;68628;48.714;9.472;2023-03-21T04:24:11;98172.34;;;7.57;78.92
79198;BME280;68628;48.714;9.472;2023-03-21T04:26:38;98163.66;;;7.56;79.48
79198;BME280;68628;48.714;9.472;2023-03-21T04:29:05;98170.53;;;7.57;79.38
79198;BME280;68628;48.714;9.472;2023-03-21T04:31:32;98164.94;;;7.52;79.67
79198;BME280;68628;48.714;9.472;2023-03-21T04:34:02;98169.09;;;7.63;79.25
79198;BME280;68628;48.714;9.472;2023-03-21T04:36:35;98164.50;;;7.57;79.23
79198;BME280;68628;48.714;9.472;2023-03-21T04:39:08;98169.94;;;7.63;79.24
79198;BME280;68628;48.714;9.472;2023-03-21T04:41:42;98167.59;;;7.60;79.13
79198;BME280;68628;48.714;9.472;2023-03-21T04:44:11;98163.13;;;7.53;79.00
79198;BME280;68628;48.714;9.472;2023-03-21T04:46:39;98165.56;;;7.46;79.88
79198;BME280;68628;48.714;9.472;2023-03-21T04:49:05;98167.22;;;7.47;79.60
79198;BME280;68628;48.714;9.472;2023-03-21T04:51:32;98167.38;;;7.45;80.17
79198;BME280;68628;48.714;9.472;2023-03-21T04:53:58;98173.88;;;7.33;79.94
79198;BME280;68628;48.714;9.472;2023-03-21T04:56:28;98171.56;;;7.38;79.66
79198;BME280;68628;48.714;9.472;2023-03-21T04:59:06;98166.09;;;7.58;79.98
79198;BME280;68628;48.714;9.472;2023-03-21T05:01:34;98174.50;;;7.61;78.82
79198;BME280;68628;48.714;9.472;2023-03-21T05:04:01;98171.31;;;7.49;79.53
79198;BME280;68628;48.714;9.472;2023-03-21T05:06:28;98172.41;;;7.39;79.54
79198;BME280;68628;48.714;9.472;2023-03-21T05:08:56;98185.47;;;7.30;80.62
79198;BME280;68628;48.714;9.472;2023-03-21T05:11:30;98171.81;;;7.45;79.79
79198;BME280;68628;48.714;9.472;2023-03-21T05:13:57;98176.22;;;7.44;79.16
79198;BME280;68628;48.714;9.472;2023-03-21T05:16:23;98179.00;;;7.43;79.58
79198;BME280;68628;48.714;9.472;2023-03-21T05:18:54;98175.38;;;7.36;79.81
79198;BME280;68628;48.714;9.472;2023-03-21T05:21:21;98175.03;;;7.39;79.98
79198;BME280;68628;48.714;9.472;2023-03-21T05:23:47;98172.50;;;7.29;79.99
79198;BME280;68628;48.714;9.472;2023-03-21T05:26:18;98172.47;;;7.21;80.67
79198;BME280;68628;48.714;9.472;2023-03-21T05:28:45;98163.78;;;7.20;80.77
79198;BME280;68628;48.714;9.472;2023-03-21T05:31:16;98167.75;;;7.24;80.34
79198;BME280;68628;48.714;9.472;2023-03-21T05:33:44;98166.28;;;7.30;80.17
79198;BME280;68628;48.714;9.472;2023-03-21T05:36:11;98176.41;;;7.25;80.63
79198;BME280;68628;48.714;9.472;2023-03-21T05:38:38;98170.22;;;7.26;80.07
79198;BME280;68628;48.714;9.472;2023-03-21T05:41:10;98179.91;;;7.33;80.31
79198;BME280;68628;48.714;9.472;2023-03-21T05:43:36;98178.28;;;7.32;80.12
79198;BME280;68628;48.714;9.472;2023-03-21T05:46:01;98181.56;;;7.34;80.03
79198;BME280;68628;48.714;9.472;2023-03-21T05:48:27;98185.00;;;7.35;80.14
79198;BME280;68628;48.714;9.472;2023-03-21T05:50:53;98194.34;;;7.38;80.03
79198;BME280;68628;48.714;9.472;2023-03-21T05:53:19;98186.34;;;7.39;79.89
79198;BME280;68628;48.714;9.472;2023-03-21T05:55:45;98188.66;;;7.42;79.98
79198;BME280;68628;48.714;9.472;2023-03-21T05:58:11;98188.19;;;7.47;79.60
79198;BME280;68628;48.714;9.472;2023-03-21T06:00:36;98193.16;;;7.58;79.15
79198;BME280;68628;48.714;9.472;2023-03-21T06:03:02;98195.84;;;7.75;78.51
79198;BME280;68628;48.714;9.472;2023-03-21T06:05:28;98190.09;;;7.71;78.12
79198;BME280;68628;48.714;9.472;2023-03-21T06:07:53;98192.72;;;7.71;78.04
79198;BME280;68628;48.714;9.472;2023-03-21T06:10:19;98187.88;;;7.84;76.95
79198;BME280;68628;48.714;9.472;2023-03-21T06:12:45;98191.91;;;7.71;77.45
79198;BME280;68628;48.714;9.472;2023-03-21T06:15:11;98185.53;;;7.73;78.20
79198;BME280;68628;48.714;9.472;2023-03-21T06:17:37;98183.34;;;7.68;78.07
79198;BME280;68628;48.714;9.472;2023-03-21T06:20:04;98186.66;;;7.71;78.59
79198;BME280;68628;48.714;9.472;2023-03-21T06:22:31;98182.09;;;7.73;78.41
79198;BME280;68628;48.714;9.472;2023-03-21T06:24:58;98187.00;;;7.76;78.84
79198;BME280;68628;48.714;9.472;2023-03-21T06:27:24;98186.41;;;7.82;77.78
79198;BME280;68628;48.714;9.472;2023-03-21T06:29:50;98186.44;;;7.98;77.46
79198;BME280;68628;48.714;9.472;2023-03-21T06:32:16;98188.31;;;7.72;78.23
79198;BME280;68628;48.714;9.472;2023-03-21T06:34:42;98187.66;;;7.78;78.24
79198;BME280;68628;48.714;9.472;2023-03-21T06:37:08;98198.84;;;7.80;77.92
79198;BME280;68628;48.714;9.472;2023-03-21T06:39:35;98188.00;;;7.75;77.68
79198;BME280;68628;48.714;9.472;2023-03-21T06:42:01;98189.66;;;7.84;77.70
79198;BME280;68628;48.714;9.472;2023-03-21T06:44:27;98181.63;;;7.86;77.45
79198;BME280;68628;48.714;9.472;2023-03-21T06:46:53;98195.47;;;8.04;76.51
79198;BME280;68628;48.714;9.472;2023-03-21T06:49:20;98189.94;;;8.15;76.49
79198;BME280;68628;48.714;9.472;2023-03-21T06:51:45;98185.91;;;8.38;75.79
79198;BME280;68628;48.714;9.472;2023-03-21T06:54:11;98183.56;;;8.18;76.47
79198;BME280;68628;48.714;9.472;2023-03-21T06:56:39;98189.50;;;8.28;76.70
79198;BME280;68628;48.714;9.472;2023-03-21T06:59:05;98188.81;;;8.34;76.71
79198;BME280;68628;48.714;9.472;2023-03-21T07:01:32;98187.84;;;8.44;76.05
79198;BME280;68628;48.714;9.472;2023-03-21T07:04:01;98182.97;;;8.49;76.16
79198;BME280;68628;48.714;9.472;2023-03-21T07:06:28;98192.19;;;8.70;75.51
79198;BME280;68628;48.714;9.472;2023-03-21T07:08:55;98186.47;;;8.82;75.43
79198;BME280;68628;48.714;9.472;2023-03-21T07:11:22;98185.47;;;8.75;74.75
79198;BME280;68628;48.714;9.472;2023-03-21T07:13:51;98186.13;;;8.77;74.04
79198;BME280;68628;48.714;9.472;2023-03-21T07:16:18;98184.78;;;9.14;73.22
79198;BME280;68628;48.714;9.472;2023-03-21T07:18:46;98183.78;;;9.07;73.31
79198;BME280;68628;48.714;9.472;2023-03-21T07:21:13;98186.56;;;9.14;73.63
79198;BME280;68628;48.714;9.472;2023-03-21T07:23:38;98182.13;;;9.31;72.17
79198;BME280;68628;48.714;9.472;2023-03-21T07:26:05;98182.34;;;9.69;71.41
79198;BME280;68628;48.714;9.472;2023-03-21T07:28:31;98180.25;;;9.64;70.99
79198;BME280;68628;48.714;9.472;2023-03-21T07:31:00;98171.28;;;9.82;70.45
79198;BME280;68628;48.714;9.472;2023-03-21T07:33:30;98172.63;;;9.78;69.39
79198;BME280;68628;48.714;9.472;2023-03-21T07:35:57;98169.91;;;9.94;69.52
79198;BME280;68628;48.714;9.472;2023-03-21T07:38:25;98171.31;;;10.05;67.84
79198;BME280;68628;48.714;9.472;2023-03-21T07:40:51;98173.63;;;10.08;67.60
79198;BME280;68628;48.714;9.472;2023-03-21T07:43:18;98174.38;;;10.25;65.51
79198;BME280;68628;48.714;9.472;2023-03-21T07:45:44;98173.63;;;10.40;65.18
79198;BME280;68628;48.714;9.472;2023-03-21T07:48:11;98167.53;;;10.39;66.02
79198;BME280;68628;48.714;9.472;2023-03-21T07:50:38;98177.75;;;10.34;64.78
79198;BME280;68628;48.714;9.472;2023-03-21T07:53:05;98182.25;;;10.25;64.40
79198;BME280;68628;48.714;9.472;2023-03-21T07:55:31;98172.69;;;10.79;62.96
79198;BME280;68628;48.714;9.472;2023-03-21T07:58:00;98179.75;;;11.02;62.78
79198;BME280;68628;48.714;9.472;2023-03-21T08:00:26;98180.41;;;11.19;62.68
79198;BME280;68628;48.714;9.472;2023-03-21T08:02:54;98176.44;;;11.97;61.48
79198;BME280;68628;48.714;9.472;2023-03-21T08:05:29;98178.78;;;12.65;57.99
79198;BME280;68628;48.714;9.472;2023-03-21T08:07:58;98176.00;;;12.95;56.77
79198;BME280;68628;48.714;9.472;2023-03-21T08:10:25;98181.59;;;13.07;56.42
79198;BME280;68628;48.714;9.472;2023-03-21T08:12:52;98172.16;;;13.26;54.47
79198;BME280;68628;48.714;9.472;2023-03-21T08:15:18;98168.34;;;11.69;58.78
79198;BME280;68628;48.714;9.472;2023-03-21T08:17:44;98171.50;;;12.96;56.25
79198;BME280;68628;48.714;9.472;2023-03-21T08:20:14;98166.41;;;12.94;55.99
79198;BME280;68628;48.714;9.472;2023-03-21T08:22:43;98162.59;;;13.32;54.81
79198;BME280;68628;48.714;9.472;2023-03-21T08:25:11;98157.94;;;14.11;51.89
79198;BME280;68628;48.714;9.472;2023-03-21T08:27:40;98160.09;;;13.87;52.49
79198;BME280;68628;48.714;9.472;2023-03-21T08:30:08;98157.41;;;13.80;51.82
79198;BME280;68628;48.714;9.472;2023-03-21T08:32:36;98159.16;;;13.66;53.06
79198;BME280;68628;48.714;9.472;2023-03-21T08:35:05;98148.50;;;13.53;52.67
79198;BME280;68628;48.714;9.472;2023-03-21T08:37:38;98148.25;;;14.52;51.53
79198;BME280;68628;48.714;9.472;2023-03-21T08:40:07;98149.50;;;14.89;51.80
79198;BME280;68628;48.714;9.472;2023-03-21T08:42:40;98144.91;;;14.16;50.53
79198;BME280;68628;48.714;9.472;2023-03-21T08:45:08;98131.94;;;15.15;48.66
79198;BME280;68628;48.714;9.472;2023-03-21T08:47:35;98138.91;;;14.76;49.36
79198;BME280;68628;48.714;9.472;2023-03-21T08:50:01;98144.06;;;14.15;49.61
79198;BME280;68628;48.714;9.472;2023-03-21T08:52:30;98140.53;;;14.83;50.26
79198;BME280;68628;48.714;9.472;2023-03-21T08:54:56;98139.44;;;16.10;45.46
79198;BME280;68628;48.714;9.472;2023-03-21T08:57:23;98131.03;;;17.46;42.43
79198;BME280;68628;48.714;9.472;2023-03-21T08:59:48;98126.00;;;17.87;40.44
79198;BME280;68628;48.714;9.472;2023-03-21T09:02:15;98131.56;;;18.35;41.59
79198;BME280;68628;48.714;9.472;2023-03-21T09:04:42;98119.63;;;19.27;38.15
79198;BME280;68628;48.714;9.472;2023-03-21T09:07:09;98121.41;;;18.97;39.05
79198;BME280;68628;48.714;9.472;2023-03-21T09:09:37;98124.50;;;19.18;37.98
79198;BME280;68628;48.714;9.472;2023-03-21T09:12:03;98126.84;;;17.88;39.02
79198;BME280;68628;48.714;9.472;2023-03-21T09:14:29;98129.56;;;16.18;43.38
79198;BME280;68628;48.714;9.472;2023-03-21T09:16:55;98131.25;;;16.44;44.06
79198;BME280;68628;48.714;9.472;2023-03-21T09:19:22;98123.16;;;17.70;40.71
79198;BME280;68628;48.714;9.472;2023-03-21T09:21:48;98126.63;;;18.92;39.14
79198;BME280;68628;48.714;9.472;2023-03-21T09:24:14;98131.28;;;19.73;36.56
79198;BME280;68628;48.714;9.472;2023-03-21T09:26:42;98132.03;;;18.31;37.98
79198;BME280;68628;48.714;9.472;2023-03-21T09:29:08;98130.63;;;19.66;36.30
79198;BME280;68628;48.714;9.472;2023-03-21T09:31:34;98124.97;;;19.27;36.28
79198;BME280;68628;48.714;9.472;2023-03-21T09:34:00;98123.91;;;17.96;39.51
79198;BME280;68628;48.714;9.472;2023-03-21T09:36:26;98130.31;;;18.07;39.52
79198;BME280;68628;48.714;9.472;2023-03-21T09:38:53;98130.97;;;20.10;35.14
79198;BME280;68628;48.714;9.472;2023-03-21T09:44:53;98127.38;;;18.27;39.35
79198;BME280;68628;48.714;9.472;2023-03-21T09:47:23;98121.75;;;18.47;37.47
79198;BME280;68628;48.714;9.472;2023-03-21T09:50:01;98119.47;;;19.69;35.94
79198;BME280;68628;48.714;9.472;2023-03-21T09:52:45;98113.94;;;20.00;35.80
79198;BME280;68628;48.714;9.472;2023-03-21T09:55:23;98112.13;;;19.64;37.17
79198;BME280;68628;48.714;9.472;2023-03-21T10:01:16;98095.88;;;21.04;34.36
79198;BME280;68628;48.714;9.472;2023-03-21T10:03:53;98100.19;;;21.88;33.19
79198;BME280;68628;48.714;9.472;2023-03-21T10:06:22;98104.28;;;19.34;36.82
79198;BME280;68628;48.714;9.472;2023-03-21T10:09:05;98095.13;;;19.30;36.17
79198;BME280;68628;48.714;9.472;2023-03-21T10:14:06;98093.88;;;20.14;34.88
79198;BME280;68628;48.714;9.472;2023-03-21T10:22:36;98074.06;;;19.45;35.83
79198;BME280;68628;48.714;9.472;2023-03-21T10:25:03;98073.88;;;18.10;38.31
79198;BME280;68628;48.714;9.472;2023-03-21T10:27:32;98077.38;;;19.64;36.10
79198;BME280;68628;48.714;9.472;2023-03-21T10:30:03;98074.25;;;18.91;37.21
79198;BME280;68628;48.714;9.472;2023-03-21T10:32:33;98067.69;;;20.33;36.36
79198;BME280;68628;48.714;9.472;2023-03-21T10:35:01;98064.88;;;17.74;37.97
79198;BME280;68628;48.714;9.472;2023-03-21T10:37:29;98072.34;;;17.35;38.01
79198;BME280;68628;48.714;9.472;2023-03-21T10:39:56;98073.19;;;18.80;36.54
79198;BME280;68628;48.714;9.472;2023-03-21T10:42:25;98071.22;;;21.24;34.94
79198;BME280;68628;48.714;9.472;2023-03-21T10:44:55;98055.09;;;21.41;32.51
79198;BME280;68628;48.714;9.472;2023-03-21T10:47:25;98057.66;;;23.00;31.57
79198;BME280;68628;48.714;9.472;2023-03-21T10:50:07;98054.06;;;20.69;33.78
79198;BME280;68628;48.714;9.472;2023-03-21T10:52:46;98047.75;;;20.92;32.20
79198;BME280;68628;48.714;9.472;2023-03-21T10:55:28;98054.97;;;18.77;35.68
79198;BME280;68628;48.714;9.472;2023-03-21T10:58:05;98050.69;;;18.76;35.32
79198;BME280;68628;48.714;9.472;2023-03-21T11:00:40;98053.69;;;19.97;34.83
79198;BME280;68628;48.714;9.472;2023-03-21T11:03:22;98062.81;;;20.13;34.84
79198;BME280;68628;48.714;9.472;2023-03-21T11:06:27;98054.47;;;19.40;35.30
79198;BME280;68628;48.714;9.472;2023-03-21T11:09:03;98060.19;;;20.01;35.79
79198;BME280;68628;48.714;9.472;2023-03-21T11:11:48;98064.13;;;19.70;36.18
79198;BME280;68628;48.714;9.472;2023-03-21T11:17:20;98057.72;;;20.11;36.58
79198;BME280;68628;48.714;9.472;2023-03-21T11:19:57;98054.81;;;17.94;38.14
79198;BME280;68628;48.714;9.472;2023-03-21T11:22:29;98039.78;;;17.14;38.62
79198;BME280;68628;48.714;9.472;2023-03-21T11:25:08;98047.88;;;17.75;39.61
79198;BME280;68628;48.714;9.472;2023-03-21T11:27:49;98039.34;;;17.36;38.87
79198;BME280;68628;48.714;9.472;2023-03-21T11:30:21;98038.69;;;17.40;39.13
79198;BME280;68628;48.714;9.472;2023-03-21T11:36:36;98032.47;;;17.28;39.11
79198;BME280;68628;48.714;9.472;2023-03-21T11:39:27;98029.22;;;17.75;39.50
79198;BME280;68628;48.714;9.472;2023-03-21T11:41:56;98028.63;;;17.42;40.29
79198;BME280;68628;48.714;9.472;2023-03-21T11:44:32;98025.19;;;18.14;38.42
79198;BME280;68628;48.714;9.472;2023-03-21T11:46:59;98020.59;;;18.57;37.73
79198;BME280;68628;48.714;9.472;2023-03-21T11:49:27;98012.34;;;18.23;37.64
79198;BME280;68628;48.714;9.472;2023-03-21T11:52:07;98016.22;;;18.98;38.31
79198;BME280;68628;48.714;9.472;2023-03-21T12:07:35;97989.75;;;16.35;39.14
79198;BME280;68628;48.714;9.472;2023-03-21T12:10:35;97983.75;;;16.65;38.69
79198;BME280;68628;48.714;9.472;2023-03-21T12:16:25;97980.34;;;17.20;39.97
79198;BME280;68628;48.714;9.472;2023-03-21T12:23:07;97969.53;;;17.15;39.19
79198;BME280;68628;48.714;9.472;2023-03-21T12:29:11;97953.25;;;16.86;39.11
79198;BME280;68628;48.714;9.472;2023-03-21T12:43:46;97936.56;;;17.89;36.96
79198;BME280;68628;48.714;9.472;2023-03-21T12:49:04;97933.81;;;17.95;36.93
79198;BME280;68628;48.714;9.472;2023-03-21T12:51:42;97934.78;;;17.10;38.32
79198;BME280;68628;48.714;9.472;2023-03-21T12:54:31;97932.22;;;17.03;39.02
79198;BME280;68628;48.714;9.472;2023-03-21T12:57:09;97928.81;;;17.26;40.32
79198;BME280;68628;48.714;9.472;2023-03-21T13:03:01;97933.22;;;17.51;39.02
79198;BME280;68628;48.714;9.472;2023-03-21T13:10:28;97931.44;;;17.45;39.15
79198;BME280;68628;48.714;9.472;2023-03-21T13:15:52;97923.28;;;17.58;38.78
79198;BME280;68628;48.714;9.472;2023-03-21T13:27:18;97912.78;;;17.87;38.18
79198;BME280;68628;48.714;9.472;2023-03-21T13:29:50;97906.72;;;17.56;36.80
79198;BME280;68628;48.714;9.472;2023-03-21T13:32:31;97908.75;;;16.75;39.00
79198;BME280;68628;48.714;9.472;2023-03-21T13:37:38;97907.16;;;16.92;37.75
79198;BME280;68628;48.714;9.472;2023-03-21T13:40:22;97900.19;;;17.10;37.83
79198;BME280;68628;48.714;9.472;2023-03-21T13:46:09;97893.63;;;18.21;37.06
79198;BME280;68628;48.714;9.472;2023-03-21T13:59:17;97882.69;;;18.58;35.49
79198;BME280;68628;48.714;9.472;2023-03-21T14:01:59;97880.16;;;18.27;38.03
79198;BME280;68628;48.714;9.472;2023-03-21T14:05:16;97881.09;;;18.21;38.29
79198;BME280;68628;48.714;9.472;2023-03-21T14:07:48;97879.47;;;18.08;38.59
79198;BME280;68628;48.714;9.472;2023-03-21T14:10:37;97878.53;;;18.38;37.55
79198;BME280;68628;48.714;9.472;2023-03-21T14:13:11;97867.56;;;17.69;37.70
79198;BME280;68628;48.714;9.472;2023-03-21T14:15:52;97872.34;;;17.24;39.32
79198;BME280;68628;48.714;9.472;2023-03-21T14:18:24;97867.47;;;17.21;40.03
79198;BME280;68628;48.714;9.472;2023-03-21T14:20:54;97866.41;;;17.22;40.44
79198;BME280;68628;48.714;9.472;2023-03-21T14:23:22;97866.91;;;17.31;40.43
79198;BME280;68628;48.714;9.472;2023-03-21T14:25:48;97860.19;;;17.28;41.25
79198;BME280;68628;48.714;9.472;2023-03-21T14:28:22;97862.78;;;17.47;40.72
79198;BME280;68628;48.714;9.472;2023-03-21T14:30:53;97857.91;;;17.32;40.59
79198;BME280;68628;48.714;9.472;2023-03-21T14:33:32;97862.38;;;17.74;39.97
79198;BME280;68628;48.714;9.472;2023-03-21T14:36:14;97856.09;;;17.56;39.84
79198;BME280;68628;48.714;9.472;2023-03-21T14:38:42;97859.88;;;17.37;40.84
79198;BME280;68628;48.714;9.472;2023-03-21T14:41:22;97857.47;;;17.47;39.23
79198;BME280;68628;48.714;9.472;2023-03-21T14:46:41;97846.28;;;16.77;41.13
79198;BME280;68628;48.714;9.472;2023-03-21T14:49:17;97840.31;;;17.01;41.10
79198;BME280;68628;48.714;9.472;2023-03-21T14:51:45;97834.72;;;17.32;41.23
79198;BME280;68628;48.714;9.472;2023-03-21T14:54:16;97837.28;;;17.39;39.26
79198;BME280;68628;48.714;9.472;2023-03-21T14:56:46;97827.47;;;17.40;40.09
79198;BME280;68628;48.714;9.472;2023-03-21T14:59:20;97833.44;;;17.23;38.65
79198;BME280;68628;48.714;9.472;2023-03-21T15:01:52;97822.84;;;17.59;39.66
79198;BME280;68628;48.714;9.472;2023-03-21T15:04:19;97832.59;;;17.11;40.44
79198;BME280;68628;48.714;9.472;2023-03-21T15:06:55;97835.44;;;17.28;41.52
79198;BME280;68628;48.714;9.472;2023-03-21T15:09:25;97830.41;;;17.20;39.16
79198;BME280;68628;48.714;9.472;2023-03-21T15:11:55;97833.50;;;17.05;40.07
79198;BME280;68628;48.714;9.472;2023-03-21T15:14:28;97830.31;;;17.26;39.94
79198;BME280;68628;48.714;9.472;2023-03-21T15:16:59;97825.47;;;17.35;40.44
79198;BME280;68628;48.714;9.472;2023-03-21T15:19:34;97836.56;;;17.20;41.03
79198;BME280;68628;48.714;9.472;2023-03-21T15:22:18;97836.56;;;16.90;40.16
79198;BME280;68628;48.714;9.472;2023-03-21T15:24:59;97832.97;;;16.96;41.01
79198;BME280;68628;48.714;9.472;2023-03-21T15:27:33;97831.88;;;16.85;42.90
79198;BME280;68628;48.714;9.472;2023-03-21T15:30:03;97827.66;;;16.77;41.59
79198;BME280;68628;48.714;9.472;2023-03-21T15:32:35;97824.13;;;16.83;41.23